createdAt,value
2018-12-19T00:03:53.319Z,7.67
2018-12-19T00:08:56.555Z,7.77
2018-12-19T00:14:00.938Z,7.30
2018-12-19T00:19:04.390Z,8.13
2018-12-19T00:24:08.345Z,6.60
2018-12-19T00:29:11.579Z,6.73
2018-12-19T00:34:14.722Z,7.50
2018-12-19T00:39:17.822Z,7.27
2018-12-19T00:44:20.937Z,7.17
2018-12-19T00:49:24.090Z,7.43
2018-12-19T00:54:27.521Z,7.70
2018-12-19T00:59:30.738Z,7.30
2018-12-19T01:04:33.866Z,7.80
2018-12-19T01:09:37.031Z,6.97
2018-12-19T01:14:40.239Z,7.07
2018-12-19T01:19:43.464Z,6.97
2018-12-19T01:24:46.606Z,6.87
2018-12-19T01:29:49.765Z,7.63
2018-12-19T01:34:52.951Z,7.63
2018-12-19T01:39:56.105Z,7.80
2018-12-19T01:44:59.338Z,7.20
2018-12-19T01:50:02.580Z,7.30
2018-12-19T01:55:05.811Z,6.70
2018-12-19T02:00:09.026Z,6.70
2018-12-19T02:21:36.549Z,7.67
2018-12-19T02:26:39.639Z,7.27
2018-12-19T02:31:42.798Z,7.43
2018-12-19T02:36:45.866Z,7.90
2018-12-19T02:41:48.964Z,7.93
2018-12-19T02:46:52.053Z,7.63
2018-12-19T02:51:55.203Z,7.37
2018-12-19T02:56:58.387Z,7.10
2018-12-19T03:02:01.554Z,8.67
2018-12-19T03:07:04.718Z,7.30
2018-12-19T03:12:07.878Z,7.13
2018-12-19T03:17:11.102Z,7.57
2018-12-19T03:22:14.262Z,7.10
2018-12-19T03:27:17.476Z,7.87
2018-12-19T03:32:20.626Z,7.83
2018-12-19T03:37:23.773Z,7.53
2018-12-19T03:42:26.941Z,7.77
2018-12-19T03:47:30.035Z,7.33
2018-12-19T03:52:33.124Z,7.43
2018-12-19T03:57:36.590Z,7.57
2018-12-19T04:02:39.705Z,7.77
2018-12-19T04:07:42.869Z,7.67
2018-12-19T04:12:46.033Z,7.70
2018-12-19T04:17:49.209Z,7.73
2018-12-19T04:22:52.318Z,7.90
2018-12-19T04:27:55.485Z,8.40
2018-12-19T04:49:23.921Z,8.10
2018-12-19T04:54:27.078Z,7.30
2018-12-19T04:59:30.170Z,7.50
2018-12-19T05:20:58.182Z,8.23
2018-12-19T05:26:01.345Z,7.97
2018-12-19T05:31:04.566Z,8.17
2018-12-19T05:36:07.786Z,7.13
2018-12-19T05:41:10.929Z,7.40
2018-12-19T05:46:14.094Z,7.17
2018-12-19T05:51:17.342Z,7.93
2018-12-19T05:56:20.500Z,8.00
2018-12-19T06:01:23.714Z,7.47
2018-12-19T06:06:26.958Z,8.33
2018-12-19T06:11:30.123Z,7.20
2018-12-19T06:16:33.211Z,7.33
2018-12-19T06:21:36.418Z,7.63
2018-12-19T06:26:39.518Z,7.63
2018-12-19T06:31:42.693Z,7.40
2018-12-19T06:36:45.789Z,7.53
2018-12-19T06:41:48.890Z,7.73
2018-12-19T06:46:52.105Z,7.13
2018-12-19T06:51:55.206Z,7.60
2018-12-19T06:56:58.392Z,7.93
2018-12-19T07:02:01.638Z,7.97
2018-12-19T07:07:04.768Z,7.63
2018-12-19T07:12:07.867Z,7.60
2018-12-19T07:17:11.042Z,8.80
2018-12-19T07:22:14.158Z,7.50
2018-12-19T07:27:17.373Z,8.00
2018-12-19T07:32:20.521Z,9.07
2018-12-19T07:37:23.753Z,7.90
2018-12-19T07:42:26.914Z,7.97
2018-12-19T07:47:30.102Z,8.60
2018-12-19T07:52:33.191Z,8.47
2018-12-19T07:57:36.346Z,8.10
2018-12-19T08:02:39.458Z,8.20
2018-12-19T08:07:42.690Z,9.03
2018-12-19T08:12:45.862Z,9.20
2018-12-19T08:17:48.970Z,8.60
2018-12-19T08:39:17.203Z,8.77
2018-12-19T08:44:20.430Z,9.30
2018-12-19T08:49:23.587Z,9.53
2018-12-19T08:54:26.798Z,8.33
2018-12-19T08:59:29.899Z,8.57
2018-12-19T09:04:33.053Z,9.57
2018-12-19T09:26:00.608Z,9.67
2018-12-19T09:47:28.570Z,9.77
2018-12-19T09:52:31.713Z,9.33
2018-12-19T09:57:35.308Z,9.07
2018-12-19T10:02:39.778Z,9.47
2018-12-19T10:07:43.114Z,10.00
2018-12-19T10:12:46.262Z,9.33
2018-12-19T10:34:07.117Z,8.93
2018-12-19T10:39:15.484Z,9.43
2018-12-19T10:44:18.741Z,9.70
2018-12-19T10:49:21.814Z,8.60
2018-12-19T10:54:24.974Z,8.53
2018-12-19T10:59:28.079Z,8.50
2018-12-19T11:04:31.174Z,8.43
2018-12-19T11:25:58.172Z,8.77
2018-12-19T11:31:01.275Z,9.13
2018-12-19T11:36:04.501Z,7.57
2018-12-19T11:41:07.715Z,8.23
2018-12-19T12:02:36.030Z,8.27
2018-12-19T12:07:39.747Z,8.30
2018-12-19T12:12:42.954Z,8.43
2018-12-19T12:17:46.042Z,8.43
2018-12-19T12:22:49.271Z,7.43
2018-12-19T12:27:52.434Z,8.90
2018-12-19T12:32:55.596Z,8.37
2018-12-19T12:37:58.704Z,8.10
2018-12-19T12:43:01.822Z,8.03
2018-12-19T12:48:05.068Z,7.97
2018-12-19T12:53:08.266Z,7.63
2018-12-19T12:58:11.358Z,8.07
2018-12-19T13:03:14.459Z,8.17
2018-12-19T13:08:17.613Z,7.87
2018-12-19T13:13:20.726Z,8.33
2018-12-19T13:18:23.843Z,7.63
2018-12-19T13:23:27.001Z,7.17
2018-12-19T13:28:30.153Z,7.80
2018-12-19T13:33:33.318Z,8.07
2018-12-19T13:38:37.429Z,7.60
2018-12-19T13:43:40.534Z,7.57
2018-12-19T13:48:43.694Z,7.03
2018-12-19T13:53:46.922Z,7.10
2018-12-19T13:58:50.306Z,6.70
2018-12-19T14:03:53.458Z,7.30
2018-12-19T14:08:56.583Z,8.40
2018-12-19T14:13:59.720Z,7.53
2018-12-19T14:19:02.910Z,7.17
2018-12-19T14:24:06.142Z,7.57
2018-12-19T14:29:09.241Z,7.93
2018-12-19T14:34:12.431Z,7.40
2018-12-19T14:39:15.658Z,7.43
2018-12-19T15:00:42.898Z,7.37
2018-12-19T15:05:46.054Z,7.10
2018-12-19T15:10:49.234Z,7.27
2018-12-19T15:15:57.706Z,7.27
2018-12-19T15:21:00.928Z,9.87
2018-12-19T15:26:04.134Z,8.93
2018-12-19T15:47:32.150Z,8.33
2018-12-19T15:52:35.374Z,9.03
2018-12-19T15:57:38.510Z,8.27
2018-12-19T16:02:41.750Z,7.47
2018-12-19T16:07:44.930Z,7.87
2018-12-19T16:29:12.330Z,7.50
2018-12-19T16:34:15.566Z,7.80
2018-12-19T16:39:18.661Z,7.80
2018-12-19T17:00:46.401Z,8.10
2018-12-19T17:05:49.910Z,7.70
2018-12-19T17:10:53.086Z,8.17
2018-12-19T17:15:56.247Z,7.80
2018-12-19T17:20:59.477Z,8.03
2018-12-19T17:26:02.655Z,8.37
2018-12-19T17:31:05.827Z,7.67
2018-12-19T17:36:09.053Z,9.20
2018-12-19T17:41:12.143Z,7.07
2018-12-19T17:46:15.297Z,7.83
2018-12-19T17:51:18.470Z,8.20
2018-12-19T17:56:21.698Z,7.93
2018-12-19T18:01:24.931Z,6.97
2018-12-19T18:06:28.154Z,6.93
2018-12-19T18:27:55.966Z,7.23
2018-12-19T18:32:59.191Z,6.60
2018-12-19T18:38:02.347Z,7.40
2018-12-19T18:43:05.446Z,7.53
2018-12-19T18:48:08.668Z,7.50
2018-12-19T19:09:35.697Z,6.57
2018-12-19T19:14:39.069Z,7.30
2018-12-19T19:19:42.294Z,7.17
2018-12-19T19:24:45.794Z,6.90
2018-12-19T19:29:48.916Z,6.67
2018-12-19T19:34:59.127Z,7.53
2018-12-19T19:40:02.486Z,7.13
2018-12-19T19:45:06.302Z,7.37
2018-12-19T19:50:09.535Z,7.87
2018-12-19T19:55:12.931Z,8.00
2018-12-19T20:00:20.673Z,7.87
2018-12-19T20:05:24.175Z,7.80
2018-12-19T20:10:27.365Z,6.93
2018-12-19T20:15:30.651Z,7.60
2018-12-19T20:20:34.023Z,8.53
2018-12-19T20:25:37.119Z,7.73
2018-12-19T20:30:40.307Z,8.07
2018-12-19T20:35:43.475Z,7.40
2018-12-19T20:40:47.025Z,7.33
2018-12-19T20:45:50.554Z,7.93
2018-12-19T20:50:53.952Z,7.50
2018-12-19T20:56:03.582Z,7.20
2018-12-19T21:01:02.775Z,7.90
2018-12-19T21:06:06.342Z,8.07
2018-12-19T21:11:09.857Z,8.00
2018-12-19T21:16:12.997Z,7.83
2018-12-19T21:21:16.101Z,7.53
2018-12-19T21:26:19.336Z,8.47
2018-12-19T21:31:22.503Z,8.07
2018-12-19T21:36:25.614Z,7.50
2018-12-19T21:41:28.706Z,7.90
2018-12-19T21:46:31.952Z,7.47
2018-12-19T21:51:35.178Z,8.00
2018-12-19T21:56:38.376Z,7.20
2018-12-19T22:01:41.623Z,7.77
2018-12-19T22:06:44.758Z,6.80
2018-12-19T22:11:47.921Z,7.23
2018-12-19T22:16:56.657Z,7.07
2018-12-19T22:22:00.024Z,7.17
2018-12-19T22:27:03.334Z,7.50
2018-12-19T22:32:06.575Z,7.53
2018-12-19T22:37:10.120Z,8.13
2018-12-19T22:42:13.455Z,6.97
2018-12-19T22:47:16.798Z,8.00
2018-12-19T22:52:20.105Z,7.60
2018-12-19T22:57:23.383Z,7.67
2018-12-19T23:02:32.057Z,8.13
2018-12-19T23:07:35.164Z,7.80
2018-12-19T23:12:38.355Z,8.40
2018-12-19T23:17:41.990Z,8.33
2018-12-19T23:22:45.325Z,7.70
2018-12-19T23:27:48.519Z,7.43
2018-12-19T23:32:51.697Z,7.97
2018-12-19T23:37:55.012Z,8.13
2018-12-19T23:42:58.240Z,8.63
2018-12-19T23:48:01.433Z,8.27
2018-12-19T23:53:04.755Z,7.93
2018-12-19T23:58:07.857Z,8.33
